createdAt,value
2022-10-11T04:01:55.232Z,81.02
2022-10-11T04:06:07.743Z,80.76
2022-10-11T04:10:20.696Z,80.73
2022-10-11T04:14:32.225Z,81.02
2022-10-11T04:18:43.715Z,81.08
2022-10-11T04:22:55.197Z,81.00
2022-10-11T04:27:06.704Z,81.86
2022-10-11T04:31:18.211Z,81.82
2022-10-11T04:35:29.795Z,81.63
2022-10-11T04:39:41.302Z,81.84
2022-10-11T04:43:52.784Z,82.52
2022-10-11T04:48:04.402Z,82.65
2022-10-11T04:52:15.895Z,82.50
2022-10-11T04:56:27.603Z,82.05
2022-10-11T05:00:39.087Z,81.82
2022-10-11T05:04:51.109Z,81.95
2022-10-11T05:09:02.651Z,82.32
2022-10-11T05:13:14.141Z,82.16
2022-10-11T05:17:25.658Z,81.84
2022-10-11T05:21:37.155Z,82.24
2022-10-11T05:25:48.651Z,81.78
2022-10-11T05:30:00.143Z,82.39
2022-10-11T05:34:11.637Z,82.27
2022-10-11T05:38:23.795Z,82.01
2022-10-11T05:42:35.279Z,82.30
2022-10-11T05:46:46.837Z,81.59
2022-10-11T05:51:03.341Z,81.71
2022-10-11T05:55:14.936Z,81.38
2022-10-11T05:59:26.572Z,80.36
2022-10-11T06:03:38.068Z,80.17
2022-10-11T06:07:49.569Z,80.45
2022-10-11T06:12:01.516Z,79.77
2022-10-11T06:16:13.576Z,78.82
2022-10-11T06:20:26.090Z,78.80
2022-10-11T06:24:37.709Z,78.00
2022-10-11T06:28:49.348Z,78.25
2022-10-11T06:33:04.633Z,78.24
2022-10-11T06:37:16.480Z,78.27
2022-10-11T06:41:30.360Z,78.21
2022-10-11T06:45:41.857Z,78.72
2022-10-11T06:49:53.352Z,78.65
2022-10-11T06:54:05.264Z,78.98
2022-10-11T06:58:16.773Z,79.02
2022-10-11T07:02:28.386Z,78.89
2022-10-11T07:06:41.395Z,78.69
2022-10-11T07:10:53.041Z,78.88
2022-10-11T07:15:05.641Z,79.04
2022-10-11T07:19:17.203Z,78.77
2022-10-11T07:23:28.725Z,78.21
2022-10-11T07:27:40.284Z,77.43
2022-10-11T07:31:51.812Z,77.11
2022-10-11T07:36:05.552Z,77.88
2022-10-11T07:40:17.298Z,77.47
2022-10-11T07:44:28.860Z,76.64
2022-10-11T07:48:40.627Z,75.60
2022-10-11T07:52:52.202Z,74.53
2022-10-11T07:57:03.808Z,73.83
2022-10-11T08:01:15.468Z,73.36
2022-10-11T08:05:29.961Z,72.75
2022-10-11T08:09:41.544Z,72.94
2022-10-11T08:13:53.134Z,72.81
2022-10-11T08:18:04.660Z,71.67
2022-10-11T08:22:16.233Z,70.68
2022-10-11T08:26:27.838Z,69.76
2022-10-11T08:30:39.381Z,69.71
2022-10-11T08:34:50.879Z,69.18
2022-10-11T08:39:02.549Z,68.83
2022-10-11T08:43:40.163Z,69.21
2022-10-11T08:48:01.197Z,70.16
2022-10-11T08:52:20.458Z,70.37
2022-10-11T08:56:36.637Z,71.08
2022-10-11T09:00:53.211Z,71.23
2022-10-11T09:05:05.435Z,71.39
2022-10-11T09:09:25.940Z,70.00
2022-10-11T09:14:03.214Z,70.51
2022-10-11T09:18:29.890Z,70.26
2022-10-11T09:22:43.026Z,69.77
2022-10-11T09:27:01.503Z,69.84
2022-10-11T09:31:13.098Z,70.19
2022-10-11T09:35:24.908Z,68.58
2022-10-11T09:39:41.616Z,67.74
2022-10-11T09:43:53.237Z,66.30
2022-10-11T09:48:07.308Z,66.39
2022-10-11T09:52:22.841Z,66.18
2022-10-11T09:56:42.091Z,66.30
2022-10-11T10:01:21.694Z,64.29
2022-10-11T10:05:36.870Z,63.88
2022-10-11T10:09:49.675Z,63.15
2022-10-11T10:14:01.396Z,63.44
2022-10-11T10:18:36.694Z,63.29
2022-10-11T10:22:49.146Z,63.04
2022-10-11T10:27:21.391Z,61.06
2022-10-11T10:36:35.218Z,58.04
2022-10-11T10:40:52.720Z,58.09
2022-10-11T10:45:11.888Z,58.41
2022-10-11T10:49:58.811Z,58.56
2022-10-11T10:54:52.320Z,60.67
2022-10-11T10:59:29.962Z,60.28
2022-10-11T11:03:45.912Z,59.82
2022-10-11T11:08:04.048Z,60.69
2022-10-11T11:12:24.682Z,58.38
2022-10-11T11:16:45.984Z,59.07
2022-10-11T11:21:28.355Z,58.43
2022-10-11T11:25:48.214Z,58.21
2022-10-11T11:30:13.874Z,59.21
2022-10-11T11:34:37.865Z,57.61
2022-10-11T11:38:56.665Z,57.53
2022-10-11T11:43:20.537Z,57.89
2022-10-11T11:47:42.413Z,57.65
2022-10-11T11:51:55.036Z,57.00
2022-10-11T11:56:17.596Z,58.06
2022-10-11T12:00:40.377Z,58.53
2022-10-11T12:04:52.988Z,58.07
2022-10-11T12:09:07.500Z,57.90
2022-10-11T12:13:32.129Z,57.80
2022-10-11T12:17:53.038Z,57.87
2022-10-11T12:22:27.625Z,57.47
2022-10-11T12:26:44.631Z,57.51
2022-10-11T12:31:05.334Z,56.97
2022-10-11T12:35:32.446Z,57.37
2022-10-11T12:39:49.296Z,55.47
2022-10-11T12:44:24.696Z,55.49
2022-10-11T12:48:40.746Z,54.56
2022-10-11T12:53:12.063Z,55.19
2022-10-11T12:58:01.205Z,54.33
2022-10-11T13:02:39.037Z,55.63
2022-10-11T13:06:55.150Z,54.26
2022-10-11T13:11:10.701Z,55.05
2022-10-11T13:15:24.362Z,54.56
2022-10-11T13:19:37.815Z,54.92
2022-10-11T13:23:49.438Z,54.61
2022-10-11T13:28:00.936Z,55.82
2022-10-11T13:32:16.507Z,55.18
2022-10-11T13:36:28.588Z,55.57
2022-10-11T13:40:40.132Z,55.01
2022-10-11T13:44:51.901Z,56.06
2022-10-11T13:49:23.345Z,56.14
2022-10-11T13:53:35.124Z,56.58
2022-10-11T13:57:49.400Z,56.66
2022-10-11T14:02:04.251Z,56.64
2022-10-11T14:06:15.759Z,56.45
2022-10-11T14:10:28.268Z,56.39
2022-10-11T14:14:42.623Z,55.13
2022-10-11T14:19:08.436Z,55.16
2022-10-11T14:23:19.922Z,55.76
2022-10-11T14:27:31.578Z,55.77
2022-10-11T14:31:43.457Z,56.38
2022-10-11T14:35:55.072Z,56.49
2022-10-11T14:40:18.508Z,57.30
2022-10-11T14:44:30.061Z,57.68
2022-10-11T14:48:54.859Z,57.96
2022-10-11T14:53:08.081Z,58.64
2022-10-11T14:57:19.597Z,58.61
2022-10-11T15:01:31.275Z,58.56
2022-10-11T15:05:42.860Z,58.98
2022-10-11T15:09:54.404Z,58.95
2022-10-11T15:14:06.558Z,58.85
2022-10-11T15:18:18.535Z,58.91
2022-10-11T15:22:30.367Z,59.81
2022-10-11T15:26:42.268Z,61.05
2022-10-11T15:30:54.300Z,61.90
2022-10-11T15:35:06.600Z,61.88
2022-10-11T15:39:33.882Z,63.32
2022-10-11T15:43:48.008Z,63.50
2022-10-11T15:47:59.885Z,63.37
2022-10-11T15:52:11.521Z,63.63
2022-10-11T15:56:23.035Z,64.26
2022-10-11T16:00:34.516Z,64.86
2022-10-11T16:04:46.002Z,64.31
2022-10-11T16:08:57.528Z,64.29
2022-10-11T16:13:10.285Z,64.29
2022-10-11T16:17:21.771Z,63.91
2022-10-11T16:21:33.316Z,63.39
2022-10-11T16:25:45.002Z,64.40
2022-10-11T16:29:56.603Z,65.19
2022-10-11T16:34:08.126Z,66.26
2022-10-11T16:38:19.634Z,65.55
2022-10-11T16:42:31.420Z,65.35
2022-10-11T16:46:44.925Z,65.27
2022-10-11T16:51:05.153Z,63.87
2022-10-11T16:55:16.714Z,63.40
2022-10-11T16:59:28.253Z,63.20
2022-10-11T17:03:39.825Z,63.06
2022-10-11T17:07:51.316Z,62.41
2022-10-11T17:12:02.995Z,62.33
2022-10-11T17:16:15.555Z,61.95
2022-10-11T17:20:27.092Z,62.26
2022-10-11T17:24:38.723Z,62.34
2022-10-11T17:28:50.591Z,62.32
2022-10-11T17:33:02.150Z,62.67
2022-10-11T17:37:13.921Z,62.70
2022-10-11T17:41:30.895Z,62.75
2022-10-11T17:45:43.475Z,63.43
2022-10-11T17:49:54.948Z,63.32
2022-10-11T17:54:06.756Z,63.20
2022-10-11T17:58:18.365Z,63.61
2022-10-11T18:02:29.950Z,63.43
2022-10-11T18:06:41.476Z,64.35
2022-10-11T18:10:52.980Z,64.90
2022-10-11T18:15:04.697Z,65.39
2022-10-11T18:19:16.356Z,65.66
2022-10-11T18:23:27.869Z,65.87
2022-10-11T18:27:39.464Z,66.46
2022-10-11T18:31:50.985Z,66.90
2022-10-11T18:36:05.406Z,67.44
2022-10-11T18:40:17.262Z,69.37
2022-10-11T18:44:28.788Z,70.33
2022-10-11T18:48:42.029Z,70.82
2022-10-11T18:52:53.638Z,71.97
2022-10-11T18:57:05.196Z,72.37
2022-10-11T19:01:22.694Z,73.22
2022-10-11T19:05:34.282Z,73.48
2022-10-11T19:09:49.030Z,73.84
2022-10-11T19:14:07.268Z,74.06
2022-10-11T19:18:31.001Z,74.52
2022-10-11T19:22:48.966Z,75.43
2022-10-11T19:27:03.020Z,76.18
2022-10-11T19:31:18.839Z,76.10
2022-10-11T19:35:33.632Z,76.79
2022-10-11T19:39:50.322Z,76.23
2022-10-11T19:44:02.330Z,76.67
2022-10-11T19:48:14.255Z,77.37
2022-10-11T19:52:26.974Z,77.67
2022-10-11T19:56:38.969Z,78.64
2022-10-11T20:05:53.367Z,78.92
2022-10-11T20:10:35.455Z,77.26
2022-10-11T20:14:58.101Z,77.02
2022-10-11T20:19:34.590Z,77.41
2022-10-11T20:24:01.595Z,78.60
2022-10-11T20:28:13.462Z,79.51
2022-10-11T20:32:25.061Z,79.96
2022-10-11T20:36:40.003Z,78.40
2022-10-11T20:40:51.546Z,79.52
2022-10-11T20:45:03.292Z,80.50
2022-10-11T20:49:14.902Z,81.32
2022-10-11T20:59:27.105Z,78.20
2022-10-11T21:03:38.822Z,77.08
2022-10-11T21:08:01.082Z,77.98
2022-10-11T21:13:33.663Z,79.20
